Lequire, Oklahoma
Current Conditions -  °F | °C
As of 1:35 PM on Thursday 30 Oct 2014 (Local Time) from KGZL Reporting Station
Clear Clear  
Wind Chill: 73°   Ceiling: Unl
Heat Index: 73°   Visibility: 10mi
Dew Point: 32°   Wind: 14mph
Humidity: 22%   Direction: 280°W
Pressure: 30.08"   Gusts: 23mph
Location:  35.1°N, 95.11°W
Report Text: KGZL 301835Z AUTO 28012G20KT 10SM CLR 23/00 A3008 RMK AO2
Loading
Personal Weather Stations






























Interactive Weather Map
Tropical Storm Tracking
New forecast layout! Learn more

10-Day Weather Forecast

Advertisements
Track Severe Weather on mobile